• Join FlightAware (Why Join?)
  • Login
  • US Flag 
05:01PM EDT


 

Airport Tracker/Info


-or-


 

Live Flight TrackerFlight Track Log ✈ N6356V ✈ 16-Nov-2013 ✈ KOFK - KABR

Flight Track Log - Related Links

Times and Time Zones

All times are in EST time to prevent confusion due to time zone crossing. See the N6356V flight status page for this flight to view local times or setup timezone preferences in your user account.

Time Position Orientation Groundspeed Altitude Reporting Facility
EST Latitude Longitude Course Direction KTS MPH feet Rate Location/Type
02:22PM 42.0697 -97.4492 350° North 147 169 4,900  Level Minneapolis Center
02:23PM 42.1158 -97.4575 352° North 174 200 6,100 1,260 Climbing Minneapolis Center
02:24PM 42.1594 -97.4761 342° North 167 192 7,600 1,440 Climbing Minneapolis Center
02:25PM 42.2158 -97.4939 347° North 171 197 9,100 1,560 Climbing Minneapolis Center
02:26PM 42.2642 -97.5061 349° North 176 203 10,800 1,440 Climbing Minneapolis Center
02:27PM 42.2871 -97.5166 350° North  Level Estimated
02:27PM 42.3111 -97.5203 347° North 173 199 12,100  Level Minneapolis Center
02:28PM 42.3603 -97.5339 348° North 177 204 13,400 1,260 Climbing Minneapolis Center
02:29PM 42.4125 -97.5469 350° North 186 214 14,800 1,440 Climbing Minneapolis Center
02:30PM 42.4633 -97.5625 347° North 188 216 16,400 1,380 Climbing Minneapolis Center
02:31PM 42.5108 -97.5756 349° North 178 205 17,700 1,620 Climbing Minneapolis Center
02:32PM 42.5594 -97.5881 349° North 178 205 19,800 1,080 Climbing Minneapolis Center
02:33PM 42.6125 -97.6025 349° North 191 220 20,000 60 Climbing Minneapolis Center
02:34PM 42.6942 -97.6247 349° North 240 276 20,000  Level Minneapolis Center
02:35PM 42.7653 -97.6447 348° North 255 293 20,000  Level Minneapolis Center
02:36PM 42.8358 -97.6636 349° North 258 297 20,000  Level Minneapolis Center
02:37PM 42.9069 -97.6819 349° North 259 298 20,000  Level Minneapolis Center
02:38PM 42.9778 -97.7022 348° North 261 300 20,000  Level Minneapolis Center
02:39PM 43.0494 -97.7217 349° North 262 302 20,000  Level Minneapolis Center
02:40PM 43.1208 -97.7419 348° North 262 302 20,000  Level Minneapolis Center
02:41PM 43.1931 -97.7619 349° North 264 304 20,000  Level Minneapolis Center
02:43PM 43.2653 -97.7822 348° North 265 305 20,000  Level Minneapolis Center
02:44PM 43.3522 -97.8078 348° North 266 306 20,000  Level Minneapolis Center
02:45PM 43.4253 -97.8281 349° North 267 307 20,000  Level Minneapolis Center
02:46PM 43.4983 -97.8486 348° North 266 306 20,000  Level Minneapolis Center
02:47PM 43.5722 -97.8686 349° North 270 311 20,000  Level Minneapolis Center
02:48PM 43.6450 -97.8906 348° North 268 308 20,000  Level Minneapolis Center
02:49PM 43.7189 -97.9114 348° North 271 312 20,000  Level Minneapolis Center
02:50PM 43.7928 -97.9331 348° North 271 312 20,000  Level Minneapolis Center
02:51PM 43.8664 -97.9525 349° North 271 312 20,000  Level Minneapolis Center
02:52PM 43.9394 -97.9739 348° North 269 310 20,000  Level Minneapolis Center
02:53PM 44.0133 -97.9956 348° North 270 311 20,000  Level Minneapolis Center
02:54PM 44.1017 -98.0208 348° North 270 311 20,000  Level Minneapolis Center
02:55PM 44.1756 -98.0431 348° North 270 311 20,000  Level Minneapolis Center
02:56PM 44.2519 -98.0642 349° North 274 315 20,000  Level Minneapolis Center
02:57PM 44.3236 -98.0861 348° North 270 311 20,000  Level Minneapolis Center
02:58PM 44.3986 -98.1078 348° North 271 312 20,000  Level Minneapolis Center
02:59PM 44.4739 -98.1289 349° North 275 316 20,000  Level Minneapolis Center
03:00PM 44.5469 -98.1508 348° North 271 312 20,000 -480 Level Minneapolis Center
03:01PM 44.6219 -98.1733 348° North 272 313 19,100 -1,440 Descending Minneapolis Center
03:02PM 44.6964 -98.1950 348° North 273 314 17,100 -1,500 Descending Minneapolis Center
03:03PM 44.7797 -98.2186 349° North 263 303 16,100 -1,200 Descending Minneapolis Center
03:04PM 44.8533 -98.2406 348° North 265 305 14,700 -1,380 Descending Minneapolis Center
03:05PM 44.9300 -98.2514 354° North 272 313 13,300 -840 Descending Minneapolis Center
03:06PM 44.9922 -98.2628 353° North 248 285 13,100 -120 Descending Minneapolis Center
03:07PM 45.0394 -98.2717 352° North 196 226 13,100  Level Minneapolis Center
03:08PM 45.0908 -98.2806 353° North 183 211 13,100  Level Minneapolis Center
03:09PM 45.1428 -98.2889 354° North 185 213 13,100 -180 Level Minneapolis Center
03:10PM 45.1992 -98.2989 353° North 196 226 12,800 -480 Descending Minneapolis Center
03:11PM 45.2589 -98.3075 354° North 209 241 12,200 -360 Descending Minneapolis Center
03:12PM 45.3161 -98.3169 353° North 209 241 12,100 -60 Descending Minneapolis Center
03:13PM 45.3758 -98.3269 353° North 189 217 12,100  Level Minneapolis Center
03:14PM 45.4114 -98.3000 28° Northeast 200 230 12,100 -240 Level Minneapolis Center
03:15PM 45.3814 -98.2492 130° Southeast 174 200 11,700 -480 Descending Minneapolis Center
03:16PM 45.3428 -98.2350 166° South 176 203 11,200 -540 Descending Minneapolis Center
03:17PM 45.3614 -98.2936 294° West 174 200 10,700 -540 Descending Minneapolis Center
03:18PM 45.3958 -98.3411 316° Northwest 173 199 10,200 -540 Descending Minneapolis Center
03:19PM 45.4164 -98.2978 56° Northeast 207 238 9,700 -540 Descending Minneapolis Center
03:20PM 45.3839 -98.2497 134° Southeast 174 200 9,200 -540 Descending Minneapolis Center
03:21PM 45.3450 -98.2236 155° Southeast 177 204 8,700 -540 Descending Minneapolis Center
03:22PM 45.3589 -98.2889 287° West 164 189 8,100 -540 Descending Minneapolis Center
03:23PM 45.3908 -98.3353 314° West 163 188 7,600 -540 Descending Minneapolis Center
03:24PM 45.4122 -98.3064 43° Northeast 171 197 7,100 -600 Descending Minneapolis Center
03:25PM 45.3803 -98.2564 132° Southeast 168 193 6,400 -540 Descending Minneapolis Center
03:27PM 45.3458 -98.2328 154° Southeast 174 200 6,100 -180 Descending Minneapolis Center
03:28PM 45.3533 -98.2783 283° West 147 169 6,100 -540 Level Minneapolis Center
03:29PM 45.3836 -98.3269 312° West 152 175 5,100 -960 Descending Minneapolis Center
03:30PM 45.4250 -98.3178 North 190 219 4,200 -900 Descending Minneapolis Center